Time;durP1;ratioP1;P1;durP2;ratioP2;P2;SDS_P1;SDS_P2;PMS_P1;PMS_P2;Temp;Humidity;BMP_temperature;BMP_pressure;BME280_temperature;BME280_humidity;BME280_pressure;Samples;Min_cycle;Max_cycle;Signal;HPM_P1;HPM_P2
2023/03/15 00:01:48;;;;;;;14.20;3.00;;;;;;;1.98;94.73;98206.17;108960;1259;72887;-70
2023/03/15 00:04:35;;;;;;;9.50;2.90;;;;;;;1.97;94.65;98213.04;108961;1260;58526;-70
2023/03/15 00:07:24;;;;;;;9.50;1.90;;;;;;;1.99;94.71;98215.70;108262;1259;1002257;-69
2023/03/15 00:10:11;;;;;;;10.90;1.90;;;;;;;1.99;94.70;98227.41;108974;1260;72849;-69
2023/03/15 00:12:57;;;;;;;8.70;2.20;;;;;;;1.96;94.68;98230.80;108988;1260;67876;-70
2023/03/15 00:15:55;;;;;;;10.50;2.30;;;;;;;1.98;94.77;98240.59;109009;1260;73914;-70
2023/03/15 00:18:42;;;;;;;7.10;1.40;;;;;;;1.98;94.77;98249.91;108923;1260;57389;-70
2023/03/15 00:21:29;;;;;;;10.30;1.80;;;;;;;1.96;94.62;98252.63;108988;1260;60293;-69
2023/03/15 00:24:15;;;;;;;6.50;1.90;;;;;;;1.97;94.48;98259.27;108903;1260;74057;-69
2023/03/15 00:27:02;;;;;;;11.30;2.10;;;;;;;1.97;94.45;98264.33;108916;1260;68746;-69
2023/03/15 00:29:49;;;;;;;8.80;1.50;;;;;;;1.98;94.66;98274.92;108976;1260;73617;-69
2023/03/15 00:32:35;;;;;;;12.40;2.10;;;;;;;1.99;94.36;98290.07;108963;1260;57414;-69
2023/03/15 00:35:22;;;;;;;9.70;1.80;;;;;;;2.00;94.28;98284.42;109035;1260;60311;-69
2023/03/15 00:38:10;;;;;;;11.10;2.10;;;;;;;1.97;94.05;98278.27;108969;1260;72809;-70
2023/03/15 00:40:56;;;;;;;8.90;1.90;;;;;;;1.99;94.08;98275.54;108954;1260;68567;-69
2023/03/15 00:43:44;;;;;;;11.90;1.60;;;;;;;1.99;93.96;98273.64;108969;1260;72718;-69
2023/03/15 00:46:31;;;;;;;9.70;1.80;;;;;;;1.99;93.86;98284.25;109002;1259;58637;-69
2023/03/15 00:49:17;;;;;;;11.80;1.70;;;;;;;1.99;93.82;98290.39;108969;1259;61117;-70
2023/03/15 00:52:06;;;;;;;13.80;2.10;;;;;;;1.99;93.65;98288.45;109002;1259;73088;-69
2023/03/15 00:54:54;;;;;;;13.00;1.60;;;;;;;2.00;93.60;98299.23;108943;1260;67359;-71
2023/03/15 00:57:44;;;;;;;6.90;1.50;;;;;;;2.00;93.46;98302.22;108951;1261;73446;-73
2023/03/15 01:00:30;;;;;;;10.40;1.80;;;;;;;1.97;93.44;98316.75;108998;1261;57261;-69
2023/03/15 01:03:17;;;;;;;10.00;1.90;;;;;;;1.96;93.22;98327.69;108210;1259;1003041;-70
2023/03/15 01:06:10;;;;;;;10.20;2.00;;;;;;;1.94;93.20;98329.92;108829;1260;73898;-70
2023/03/15 01:08:57;;;;;;;9.40;2.00;;;;;;;1.95;93.15;98341.61;109011;1259;67814;-69
2023/03/15 01:11:44;;;;;;;7.60;1.50;;;;;;;1.93;92.84;98341.21;109041;1260;72472;-68
2023/03/15 01:14:30;;;;;;;10.30;2.00;;;;;;;1.93;92.77;98346.46;109028;1260;57331;-70
2023/03/15 01:17:17;;;;;;;8.30;1.30;;;;;;;1.93;92.80;98353.11;108978;1260;58817;-68
2023/03/15 01:20:05;;;;;;;14.50;1.70;;;;;;;1.91;92.37;98352.73;108991;1260;73104;-70
2023/03/15 01:22:52;;;;;;;10.10;1.50;;;;;;;1.90;92.15;98351.77;109029;1259;68069;-71
2023/03/15 01:25:39;;;;;;;7.80;1.30;;;;;;;1.89;92.13;98353.73;108993;1259;71744;-71
2023/03/15 01:28:26;;;;;;;11.00;1.70;;;;;;;1.87;92.06;98357.19;108976;1259;57514;-70
2023/03/15 01:31:20;;;;;;;6.50;1.40;;;;;;;1.86;92.16;98359.17;109005;1259;59983;-68
2023/03/15 01:34:07;;;;;;;9.30;1.50;;;;;;;1.84;91.97;98365.27;108991;1260;71692;-70
2023/03/15 01:36:53;;;;;;;6.70;1.50;;;;;;;1.80;91.82;98366.62;109011;1260;66577;-69
2023/03/15 01:39:47;;;;;;;8.10;1.60;;;;;;;1.75;91.92;98367.80;108965;1260;71601;-68
2023/03/15 01:42:52;;;;;;;8.40;2.00;;;;;;;1.73;92.00;98377.74;108824;1260;58908;-68
2023/03/15 01:46:01;;;;;;;10.50;1.50;;;;;;;1.70;92.28;98382.13;108848;1260;58665;-69
2023/03/15 01:48:55;;;;;;;11.70;2.40;;;;;;;1.71;92.47;98389.23;108150;1262;1002445;-69
2023/03/15 01:52:00;;;;;;;11.80;2.20;;;;;;;1.68;92.27;98383.64;108953;1260;67454;-70
2023/03/15 01:55:18;;;;;;;13.20;2.50;;;;;;;1.74;92.14;98392.20;108866;1260;72608;-69
2023/03/15 01:58:26;;;;;;;12.60;2.70;;;;;;;1.76;91.62;98402.92;108901;1260;57471;-69
2023/03/15 02:01:15;;;;;;;23.30;4.90;;;;;;;1.78;91.47;98403.80;108936;1263;61185;-69
2023/03/15 02:04:11;;;;;;;17.20;4.20;;;;;;;1.80;91.18;98412.52;108879;1262;73301;-67
2023/03/15 02:07:02;;;;;;;12.70;3.80;;;;;;;1.83;91.11;98414.33;108825;1263;68786;-66
2023/03/15 02:10:02;;;;;;;10.80;2.10;;;;;;;1.84;90.62;98413.67;108782;1264;69964;-70
2023/03/15 02:12:52;;;;;;;7.70;1.70;;;;;;;1.86;89.75;98433.65;108851;1263;58177;-69
2023/03/15 02:15:38;;;;;;;9.10;1.70;;;;;;;1.87;89.50;98437.09;108823;1263;58191;-70
2023/03/15 02:18:25;;;;;;;9.50;2.10;;;;;;;1.88;89.50;98445.09;108832;1263;71809;-70
2023/03/15 02:21:20;;;;;;;12.90;2.00;;;;;;;1.89;89.54;98449.56;108959;1263;67785;-70
2023/03/15 02:24:59;;;;;;;11.70;1.60;;;;;;;1.90;89.25;98459.67;108809;1262;73757;-71
2023/03/15 02:27:45;;;;;;;8.40;1.80;;;;;;;1.88;89.14;98466.23;108446;1268;57490;-70
2023/03/15 02:30:34;;;;;;;7.70;2.10;;;;;;;1.86;89.27;98466.04;108347;1269;60265;-70
2023/03/15 02:33:28;;;;;;;6.90;1.60;;;;;;;1.82;89.29;98470.52;107692;1266;1015579;-72
2023/03/15 02:36:20;;;;;;;9.90;1.70;;;;;;;1.76;89.47;98480.84;108565;1266;68636;-70
2023/03/15 02:39:18;;;;;;;8.90;1.70;;;;;;;1.71;89.75;98481.92;108576;1266;72541;-69
2023/03/15 02:42:05;;;;;;;10.70;1.90;;;;;;;1.67;90.12;98494.38;108573;1266;58700;-70
2023/03/15 02:44:53;;;;;;;13.10;1.80;;;;;;;1.64;90.30;98502.61;108585;1266;60264;-70
2023/03/15 02:47:39;;;;;;;12.40;2.00;;;;;;;1.64;90.41;98504.38;108559;1267;71682;-69
2023/03/15 02:50:26;;;;;;;6.50;1.40;;;;;;;1.66;90.59;98510.02;107867;1266;1002265;-70
2023/03/15 02:53:13;;;;;;;7.90;1.80;;;;;;;1.65;90.44;98515.84;108635;1266;71607;-69
2023/03/15 02:55:59;;;;;;;6.60;1.40;;;;;;;1.64;90.56;98516.11;108605;1266;57324;-69
2023/03/15 02:58:46;;;;;;;13.20;2.10;;;;;;;1.62;90.83;98520.58;108622;1266;60096;-70
2023/03/15 03:01:35;;;;;;;11.30;2.20;;;;;;;1.60;90.65;98517.40;108568;1266;74156;-71
2023/03/15 03:04:22;;;;;;;9.40;1.70;;;;;;;1.58;90.55;98522.46;108831;1259;67698;-69
2023/03/15 03:07:09;;;;;;;11.30;1.80;;;;;;;1.56;90.62;98531.65;108956;1260;71264;-71
2023/03/15 03:10:10;;;;;;;12.60;2.00;;;;;;;1.52;90.56;98537.34;109010;1259;57367;-72
2023/03/15 03:13:04;;;;;;;10.70;1.70;;;;;;;1.46;90.56;98544.84;108956;1260;59245;-70
2023/03/15 03:15:57;;;;;;;12.70;2.30;;;;;;;1.41;90.85;98549.59;108925;1259;73162;-70
2023/03/15 03:18:45;;;;;;;7.60;1.70;;;;;;;1.35;90.92;98554.86;108983;1259;68918;-69
2023/03/15 03:21:32;;;;;;;9.60;2.10;;;;;;;1.30;91.03;98564.61;108982;1259;72387;-71
2023/03/15 03:24:19;;;;;;;10.60;1.80;;;;;;;1.25;91.26;98568.91;108972;1259;58436;-72
2023/03/15 03:27:06;;;;;;;12.10;2.10;;;;;;;1.21;91.38;98577.42;108861;1260;61169;-70
2023/03/15 03:29:54;;;;;;;9.50;1.70;;;;;;;1.16;91.32;98584.33;108998;1259;73026;-71
2023/03/15 03:32:41;;;;;;;8.40;1.70;;;;;;;1.11;91.72;98592.18;108997;1260;66584;-71
2023/03/15 03:35:30;;;;;;;15.00;2.00;;;;;;;1.05;92.03;98597.82;108982;1259;73729;-72
2023/03/15 03:38:17;;;;;;;13.00;1.70;;;;;;;1.01;92.03;98596.98;108922;1262;58505;-68
2023/03/15 03:41:09;;;;;;;12.00;2.30;;;;;;;1.00;92.40;98606.83;108991;1260;59384;-68
2023/03/15 03:43:57;;;;;;;10.30;2.10;;;;;;;1.02;92.62;98608.46;108692;1259;72366;-69
2023/03/15 03:46:44;;;;;;;9.10;1.90;;;;;;;1.02;92.84;98613.17;108982;1259;65353;-69
2023/03/15 03:49:31;;;;;;;12.70;2.40;;;;;;;1.02;92.97;98618.23;108891;1260;73555;-68
2023/03/15 03:52:17;;;;;;;9.30;1.80;;;;;;;1.04;93.00;98622.85;108983;1260;57310;-68
2023/03/15 03:55:04;;;;;;;12.10;1.80;;;;;;;1.03;93.05;98622.05;108933;1260;62288;-68
2023/03/15 03:57:54;;;;;;;11.30;2.60;;;;;;;1.01;92.91;98631.02;109025;1259;72937;-69
2023/03/15 04:01:04;;;;;;;10.90;2.20;;;;;;;0.99;92.78;98643.20;108995;1260;68082;-72
2023/03/15 04:03:51;;;;;;;17.20;3.00;;;;;;;0.99;93.05;98647.08;108889;1263;72446;-70
2023/03/15 04:06:44;;;;;;;11.00;1.80;;;;;;;0.99;92.88;98651.23;108901;1259;58688;-70
2023/03/15 04:09:36;;;;;;;9.80;2.10;;;;;;;1.03;92.54;98659.92;108056;1260;1002829;-73
2023/03/15 04:12:23;;;;;;;7.70;1.80;;;;;;;1.09;92.67;98665.00;109001;1260;71325;-71
2023/03/15 04:15:12;;;;;;;11.30;2.20;;;;;;;1.16;92.76;98676.79;108865;1260;68936;-71
2023/03/15 04:17:58;;;;;;;11.00;1.80;;;;;;;1.22;92.38;98687.61;108963;1259;72512;-71
2023/03/15 04:20:53;;;;;;;8.50;1.70;;;;;;;1.20;92.02;98684.77;108897;1259;58767;-70
2023/03/15 04:23:40;;;;;;;9.30;1.80;;;;;;;1.23;92.05;98692.27;109002;1259;58838;-71
2023/03/15 04:26:36;;;;;;;9.80;1.80;;;;;;;1.19;92.11;98700.35;108987;1260;72148;-71
2023/03/15 04:29:45;;;;;;;9.70;2.20;;;;;;;1.16;92.06;98709.59;108924;1260;68691;-71
2023/03/15 04:33:02;;;;;;;5.50;1.50;;;;;;;1.12;91.73;98713.34;108887;1259;71461;-71
2023/03/15 04:36:27;;;;;;;9.80;1.70;;;;;;;1.04;91.37;98722.23;108784;1260;58931;-71
2023/03/15 04:39:32;;;;;;;9.10;1.70;;;;;;;0.97;91.71;98726.79;109045;1259;58718;-70
2023/03/15 04:42:44;;;;;;;9.60;1.50;;;;;;;0.91;91.76;98732.60;108970;1260;72883;-73
2023/03/15 04:45:53;;;;;;;10.50;1.60;;;;;;;0.80;91.85;98730.26;109029;1259;67603;-71
2023/03/15 04:49:02;;;;;;;6.30;1.60;;;;;;;0.79;92.09;98741.36;108982;1259;72707;-72
2023/03/15 04:52:11;;;;;;;6.40;1.50;;;;;;;0.73;92.72;98745.19;108982;1259;57302;-71
2023/03/15 04:55:16;;;;;;;8.70;1.60;;;;;;;0.70;93.05;98752.34;109032;1259;60486;-72
2023/03/15 04:58:26;;;;;;;9.30;1.80;;;;;;;0.66;93.43;98756.54;108928;1259;73005;-69
2023/03/15 05:01:36;;;;;;;12.90;2.00;;;;;;;0.66;93.90;98759.50;108888;1259;65318;-72
2023/03/15 05:04:37;;;;;;;10.70;1.60;;;;;;;0.67;94.02;98765.55;108928;1259;71257;-74
2023/03/15 05:07:58;;;;;;;8.70;1.90;;;;;;;0.68;94.18;98767.45;108172;1259;1014934;-74
2023/03/15 05:11:07;;;;;;;6.70;1.40;;;;;;;0.67;94.26;98762.60;109019;1259;57809;-73
2023/03/15 05:14:03;;;;;;;10.10;2.00;;;;;;;0.66;94.49;98775.77;108963;1260;74137;-73
2023/03/15 05:17:10;;;;;;;5.90;1.40;;;;;;;0.67;94.69;98782.86;108968;1260;68913;-72
2023/03/15 05:20:31;;;;;;;9.30;2.10;;;;;;;0.68;94.65;98783.49;108736;1259;72737;-74
2023/03/15 05:23:39;;;;;;;10.00;1.80;;;;;;;0.70;94.81;98787.58;109011;1259;57303;-72
2023/03/15 05:26:25;;;;;;;7.90;1.70;;;;;;;0.78;94.90;98790.64;109013;1259;61280;-74
2023/03/15 05:29:30;;;;;;;8.80;1.90;;;;;;;0.85;94.78;98795.65;109008;1260;72936;-70
2023/03/15 05:32:43;;;;;;;10.90;2.30;;;;;;;0.92;94.37;98789.97;108271;1259;1002718;-73
2023/03/15 05:35:47;;;;;;;6.10;1.60;;;;;;;0.99;93.78;98795.88;109033;1259;72387;-72
2023/03/15 05:38:36;;;;;;;10.40;1.90;;;;;;;1.07;93.25;98812.88;108952;1259;57305;-72
2023/03/15 05:41:43;;;;;;;9.40;2.50;;;;;;;1.17;92.49;98825.91;108921;1260;58686;-73
2023/03/15 05:45:08;;;;;;;10.90;1.90;;;;;;;1.25;92.14;98837.35;108785;1259;73826;-71
2023/03/15 05:48:33;;;;;;;8.70;1.70;;;;;;;1.35;91.88;98842.50;108796;1259;67794;-71
2023/03/15 05:51:33;;;;;;;10.50;1.90;;;;;;;1.38;91.08;98852.30;108928;1260;71680;-72
2023/03/15 05:54:38;;;;;;;8.60;1.70;;;;;;;1.40;90.98;98856.05;109026;1259;57464;-72
2023/03/15 05:57:43;;;;;;;7.90;1.40;;;;;;;1.41;90.51;98851.30;108957;1260;59208;-72
2023/03/15 06:00:41;;;;;;;6.50;1.90;;;;;;;1.42;90.01;98857.14;108209;1259;1002249;-74
2023/03/15 06:03:32;;;;;;;7.60;1.80;;;;;;;1.48;89.98;98865.87;108923;1260;69142;-72
2023/03/15 06:06:22;;;;;;;8.40;1.70;;;;;;;1.58;89.24;98868.23;108808;1260;71202;-73
2023/03/15 06:09:09;;;;;;;6.90;1.70;;;;;;;1.66;88.52;98874.58;108859;1260;57428;-70
2023/03/15 06:11:56;;;;;;;7.40;1.60;;;;;;;1.73;87.94;98877.02;108966;1259;61389;-72
2023/03/15 06:14:43;;;;;;;8.60;2.00;;;;;;;1.73;87.41;98878.74;108921;1263;71583;-73
2023/03/15 06:17:31;;;;;;;8.90;1.90;;;;;;;1.70;87.71;98885.36;108247;1259;1003088;-73
2023/03/15 06:20:18;;;;;;;6.90;1.90;;;;;;;1.76;87.33;98895.72;108995;1259;71560;-72
2023/03/15 06:23:04;;;;;;;7.90;1.80;;;;;;;1.74;86.94;98892.98;108826;1259;59634;-71
2023/03/15 06:25:58;;;;;;;8.00;1.80;;;;;;;1.76;87.06;98899.04;109022;1259;60081;-73
2023/03/15 06:28:47;;;;;;;6.50;1.60;;;;;;;1.84;86.87;98908.14;108964;1260;71637;-72
2023/03/15 06:31:34;;;;;;;6.70;1.70;;;;;;;2.03;86.51;98914.86;109011;1260;66517;-72
2023/03/15 06:34:26;;;;;;;7.20;1.60;;;;;;;2.25;85.53;98917.38;108967;1259;73632;-72
2023/03/15 06:37:14;;;;;;;8.10;1.80;;;;;;;2.48;84.90;98927.57;108921;1259;58816;-69
2023/03/15 06:40:15;;;;;;;8.20;1.80;;;;;;;2.72;84.11;98931.63;108983;1259;60343;-71
2023/03/15 06:43:04;;;;;;;7.80;1.50;;;;;;;2.91;83.06;98929.05;108990;1260;74126;-71
2023/03/15 06:45:57;;;;;;;7.50;1.80;;;;;;;3.12;82.43;98939.11;108969;1259;67848;-71
2023/03/15 06:48:44;;;;;;;8.00;1.80;;;;;;;3.28;81.81;98942.27;109032;1260;71632;-72
2023/03/15 06:51:31;;;;;;;8.80;2.00;;;;;;;3.34;80.76;98945.02;108855;1259;58348;-72
2023/03/15 06:54:17;;;;;;;7.40;1.80;;;;;;;3.39;80.26;98952.27;109056;1259;58710;-70
2023/03/15 06:57:04;;;;;;;6.40;1.80;;;;;;;3.53;79.76;98962.37;108937;1260;72778;-72
2023/03/15 06:59:52;;;;;;;8.90;2.30;;;;;;;3.69;79.21;98968.52;109029;1259;66557;-71
2023/03/15 07:02:39;;;;;;;8.10;1.90;;;;;;;3.81;78.60;98977.16;109006;1260;73604;-70
2023/03/15 07:05:26;;;;;;;7.00;1.80;;;;;;;4.24;78.10;98981.65;109028;1260;57313;-72
2023/03/15 07:08:12;;;;;;;8.00;1.80;;;;;;;5.26;75.08;98987.45;109012;1260;60362;-73
2023/03/15 07:11:01;;;;;;;9.90;2.20;;;;;;;5.97;72.84;98993.85;109083;1259;71553;-74
2023/03/15 07:13:48;;;;;;;8.00;1.80;;;;;;;7.76;65.73;98986.84;108988;1260;67989;-72
2023/03/15 07:16:35;;;;;;;7.60;1.80;;;;;;;8.34;62.22;98990.63;108956;1259;73933;-70
2023/03/15 07:19:21;;;;;;;8.20;1.90;;;;;;;8.26;59.21;98993.27;108919;1260;57901;-70
2023/03/15 07:22:08;;;;;;;7.50;1.70;;;;;;;9.07;57.56;98999.01;108958;1259;61140;-71
2023/03/15 07:24:54;;;;;;;6.90;1.80;;;;;;;8.78;56.61;98993.40;108954;1260;72668;-70
2023/03/15 07:27:41;;;;;;;8.10;2.00;;;;;;;9.63;55.58;98998.48;108898;1260;67867;-73
2023/03/15 07:30:27;;;;;;;7.40;1.90;;;;;;;10.84;50.88;98994.38;108895;1260;73532;-73
2023/03/15 07:33:13;;;;;;;7.10;1.70;;;;;;;11.17;50.66;98994.41;108923;1260;57400;-75
2023/03/15 07:36:03;;;;;;;7.10;1.80;;;;;;;11.32;49.92;98995.84;108980;1260;58937;-73
2023/03/15 07:38:49;;;;;;;7.30;2.10;;;;;;;10.69;49.65;98998.48;108962;1259;72904;-73
2023/03/15 07:41:36;;;;;;;8.20;2.00;;;;;;;10.99;50.44;99000.61;108964;1260;66427;-71
2023/03/15 07:44:26;;;;;;;8.10;1.70;;;;;;;11.66;48.78;99000.00;108998;1259;72504;-73
2023/03/15 07:47:12;;;;;;;7.60;1.90;;;;;;;12.70;45.73;98989.52;109022;1259;57815;-73
2023/03/15 07:49:59;;;;;;;7.40;1.90;;;;;;;14.02;44.50;98991.77;109062;1260;57788;-73
2023/03/15 07:52:45;;;;;;;7.20;2.10;;;;;;;14.97;40.84;98998.86;108974;1260;72869;-71
2023/03/15 07:55:34;;;;;;;7.60;2.40;;;;;;;15.04;39.29;98999.88;108904;1260;67727;-74
2023/03/15 07:58:22;;;;;;;8.80;2.40;;;;;;;15.09;37.74;99004.29;108855;1260;71539;-72
2023/03/15 08:01:08;;;;;;;7.50;2.20;;;;;;;14.67;38.31;99012.21;108898;1260;57501;-73
2023/03/15 08:03:54;;;;;;;7.90;2.00;;;;;;;13.97;38.35;99018.16;109011;1260;58505;-73
2023/03/15 08:06:41;;;;;;;9.00;2.00;;;;;;;14.35;38.68;99027.08;108982;1260;74069;-72
2023/03/15 08:09:27;;;;;;;7.60;2.00;;;;;;;15.04;37.21;99028.77;109054;1259;68644;-73
2023/03/15 08:12:14;;;;;;;8.80;2.20;;;;;;;15.70;36.20;99029.89;109054;1259;70616;-72
2023/03/15 08:15:00;;;;;;;8.30;2.00;;;;;;;16.57;35.16;99025.60;108967;1259;57937;-72
2023/03/15 08:17:48;;;;;;;7.80;1.70;;;;;;;15.97;34.53;99034.30;108806;1260;61428;-71
2023/03/15 08:20:34;;;;;;;8.30;1.70;;;;;;;14.88;35.67;99043.10;108969;1258;74309;-71
2023/03/15 08:23:21;;;;;;;8.10;2.00;;;;;;;14.39;36.43;99054.84;108994;1259;67623;-72
2023/03/15 08:26:07;;;;;;;8.80;2.20;;;;;;;13.75;38.00;99055.98;109009;1259;72622;-71
2023/03/15 08:28:54;;;;;;;7.00;1.80;;;;;;;13.42;38.43;99060.36;108931;1259;57787;-71
2023/03/15 08:31:40;;;;;;;7.60;2.00;;;;;;;13.36;39.53;99064.07;109035;1260;58901;-73
2023/03/15 08:34:27;;;;;;;6.30;1.90;;;;;;;13.88;38.01;99061.79;109024;1260;73105;-73
2023/03/15 08:37:13;;;;;;;7.10;2.10;;;;;;;14.86;36.50;99067.23;109068;1259;67860;-73
2023/03/15 08:40:04;;;;;;;7.70;2.10;;;;;;;16.08;34.69;99070.20;109013;1260;70687;-70
2023/03/15 08:42:52;;;;;;;7.10;1.80;;;;;;;16.65;32.54;99071.90;109019;1259;57338;-71
2023/03/15 08:45:39;;;;;;;8.20;2.40;;;;;;;16.19;33.23;99073.76;108978;1260;60054;-72
2023/03/15 08:48:45;;;;;;;6.80;1.90;;;;;;;16.37;32.94;99081.01;108975;1259;72902;-71
2023/03/15 08:51:32;;;;;;;6.90;2.50;;;;;;;16.58;33.07;99085.64;109036;1260;67903;-72
2023/03/15 08:54:19;;;;;;;9.40;1.90;;;;;;;17.39;31.77;99101.44;108972;1260;72660;-74
2023/03/15 08:57:05;;;;;;;7.30;1.60;;;;;;;16.92;30.54;99107.42;108917;1260;57419;-72
2023/03/15 08:59:52;;;;;;;6.00;1.20;;;;;;;15.90;30.30;99110.51;108953;1260;60161;-73
2023/03/15 09:02:38;;;;;;;7.20;1.40;;;;;;;15.36;31.12;99120.95;108962;1260;71890;-72
2023/03/15 09:05:26;;;;;;;8.10;1.70;;;;;;;14.61;32.34;99123.34;108873;1260;67686;-71
2023/03/15 09:08:15;;;;;;;6.30;1.50;;;;;;;13.30;33.26;99126.14;108976;1260;71258;-73
2023/03/15 09:11:04;;;;;;;6.80;1.50;;;;;;;13.45;33.57;99141.11;108635;1265;57813;-71
2023/03/15 09:13:50;;;;;;;6.70;1.30;;;;;;;13.29;34.17;99141.56;108211;1268;61392;-72
2023/03/15 09:16:37;;;;;;;6.80;1.50;;;;;;;12.50;35.10;99145.84;108414;1268;72948;-71
2023/03/15 09:19:23;;;;;;;8.60;2.20;;;;;;;12.12;36.46;99143.88;108375;1269;67697;-73
2023/03/15 09:22:11;;;;;;;7.30;1.90;;;;;;;13.82;34.93;99143.84;108398;1268;72905;-73
2023/03/15 09:25:09;;;;;;;6.70;1.90;;;;;;;15.51;32.60;99145.84;108383;1269;58836;-71
2023/03/15 09:27:56;;;;;;;7.10;2.00;;;;;;;16.57;30.81;99146.29;108387;1269;60171;-71
2023/03/15 09:30:42;;;;;;;6.50;1.80;;;;;;;17.74;28.92;99148.73;108415;1272;72038;-70
2023/03/15 09:33:31;;;;;;;7.50;1.70;;;;;;;18.61;27.05;99144.73;108333;1269;67742;-72
2023/03/15 09:36:18;;;;;;;7.20;1.60;;;;;;;18.75;26.27;99152.86;108399;1269;72721;-72
2023/03/15 09:39:04;;;;;;;9.50;3.20;;;;;;;19.07;25.59;99145.23;108468;1268;57498;-71
2023/03/15 09:41:57;;;;;;;7.90;1.60;;;;;;;19.67;24.13;99153.43;108630;1263;58833;-70
2023/03/15 09:44:58;;;;;;;6.10;1.50;;;;;;;19.78;22.57;99167.15;108812;1261;72770;-71
2023/03/15 09:48:23;;;;;;;6.60;1.20;;;;;;;19.89;22.27;99163.14;109033;1259;68265;-72
2023/03/15 09:51:22;;;;;;;7.10;1.60;;;;;;;20.28;21.56;99161.58;109043;1259;72410;-69
2023/03/15 09:54:26;;;;;;;7.30;1.50;;;;;;;20.77;21.13;99169.16;108977;1259;57416;-71
2023/03/15 09:57:35;;;;;;;8.80;1.70;;;;;;;20.84;20.47;99172.53;108946;1260;60748;-70
2023/03/15 10:00:39;;;;;;;6.80;1.50;;;;;;;21.07;20.89;99178.61;108961;1260;71800;-71
2023/03/15 10:03:37;;;;;;;8.30;1.60;;;;;;;21.77;21.04;99184.23;108964;1260;67895;-73
2023/03/15 10:06:34;;;;;;;6.80;1.50;;;;;;;22.33;20.66;99188.77;108945;1260;72523;-71
2023/03/15 10:09:31;;;;;;;7.50;1.80;;;;;;;22.76;20.49;99188.38;108983;1261;57389;-71
2023/03/15 10:12:29;;;;;;;7.60;1.60;;;;;;;22.63;20.41;99183.51;108972;1260;58867;-70
2023/03/15 10:15:46;;;;;;;7.20;1.50;;;;;;;22.82;19.88;99174.77;108930;1260;74086;-72
2023/03/15 10:19:27;;;;;;;7.10;1.80;;;;;;;23.23;19.55;99180.86;109025;1260;67857;-72
2023/03/15 10:22:57;;;;;;;8.30;1.70;;;;;;;23.43;19.24;99186.96;108976;1260;72769;-71
2023/03/15 10:25:49;;;;;;;8.30;1.80;;;;;;;23.61;19.15;99189.58;108293;1269;57347;-71
2023/03/15 10:28:37;;;;;;;8.90;1.40;;;;;;;23.94;18.22;99197.63;108153;1268;58657;-72
2023/03/15 10:31:33;;;;;;;8.90;1.60;;;;;;;24.07;17.57;99201.81;108375;1269;73186;-71
2023/03/15 10:34:31;;;;;;;8.10;1.40;;;;;;;23.39;16.82;99206.06;108403;1270;66826;-72
2023/03/15 10:37:19;;;;;;;8.10;1.30;;;;;;;21.47;18.08;99214.72;108439;1269;73514;-71
2023/03/15 10:40:09;;;;;;;8.70;1.70;;;;;;;20.61;19.34;99213.10;108463;1269;57437;-73
2023/03/15 10:42:56;;;;;;;8.50;1.70;;;;;;;20.57;19.80;99220.65;108408;1267;60255;-71
2023/03/15 10:46:06;;;;;;;8.70;1.90;;;;;;;18.65;21.59;99229.44;108444;1272;70566;-73
2023/03/15 10:49:10;;;;;;;7.80;1.90;;;;;;;18.70;22.77;99230.23;108432;1267;68068;-72
2023/03/15 10:51:57;;;;;;;10.10;1.70;;;;;;;18.79;22.78;99236.77;108513;1269;73455;-71
2023/03/15 10:54:44;;;;;;;8.10;1.70;;;;;;;17.98;23.88;99238.20;108419;1267;59077;-73
2023/03/15 10:57:49;;;;;;;8.30;1.90;;;;;;;17.95;23.49;99241.61;108306;1267;58434;-71
2023/03/15 11:00:36;;;;;;;10.30;1.80;;;;;;;19.00;22.65;99241.81;108472;1267;72933;-70
2023/03/15 11:03:24;;;;;;;10.00;2.00;;;;;;;19.94;21.71;99249.09;108873;1260;67779;-71
2023/03/15 11:06:27;;;;;;;8.00;1.90;;;;;;;20.05;20.45;99255.89;108971;1260;72689;-71
2023/03/15 11:09:24;;;;;;;8.50;1.80;;;;;;;20.14;19.37;99256.70;108881;1260;57803;-70
2023/03/15 11:12:29;;;;;;;11.40;2.00;;;;;;;18.38;21.22;99257.70;109011;1260;60213;-72
2023/03/15 11:15:18;;;;;;;7.60;1.80;;;;;;;16.88;23.75;99265.02;108954;1259;74090;-70
2023/03/15 11:18:05;;;;;;;8.80;2.10;;;;;;;17.38;23.33;99271.68;108984;1261;66506;-71
2023/03/15 11:20:55;;;;;;;9.60;2.10;;;;;;;18.00;22.86;99271.80;109009;1260;72508;-70
2023/03/15 11:23:48;;;;;;;9.00;2.00;;;;;;;18.67;22.41;99270.73;108876;1263;58060;-72
2023/03/15 11:26:39;;;;;;;8.20;1.50;;;;;;;18.93;21.50;99282.58;108912;1263;59166;-70
2023/03/15 11:29:34;;;;;;;7.50;1.80;;;;;;;18.45;21.02;99284.01;108970;1260;72880;-74
2023/03/15 11:32:25;;;;;;;8.10;2.00;;;;;;;18.32;21.36;99289.87;109048;1260;68690;-73
2023/03/15 11:35:27;;;;;;;9.40;1.80;;;;;;;18.18;21.71;99285.67;108942;1261;72505;-71
2023/03/15 11:38:29;;;;;;;8.10;1.90;;;;;;;18.42;21.97;99282.94;108966;1260;57346;-71
2023/03/15 11:42:04;;;;;;;10.00;1.80;;;;;;;18.08;21.38;99288.69;108963;1259;60737;-75
2023/03/15 11:44:57;;;;;;;6.60;1.50;;;;;;;17.52;21.84;99285.30;108518;1267;72420;-69
2023/03/15 11:48:04;;;;;;;10.50;2.10;;;;;;;17.32;22.63;99279.94;108411;1267;67636;-73
2023/03/15 11:50:56;;;;;;;8.90;1.90;;;;;;;17.13;22.79;99284.75;108316;1267;264409;-74
2023/03/15 11:54:05;;;;;;;8.00;1.80;;;;;;;16.78;23.51;99284.64;108576;1267;57535;-74
2023/03/15 11:57:02;;;;;;;9.30;1.80;;;;;;;16.71;23.49;99286.88;108455;1269;60309;-69
2023/03/15 11:59:48;;;;;;;10.30;2.00;;;;;;;16.48;24.05;99277.34;108517;1267;72804;-73
2023/03/15 12:02:48;;;;;;;9.30;1.90;;;;;;;16.35;23.46;99285.77;108554;1267;67863;-71
2023/03/15 12:05:51;;;;;;;7.60;1.70;;;;;;;15.93;23.78;99282.98;108352;1267;71157;-71
2023/03/15 12:08:50;;;;;;;9.10;1.80;;;;;;;15.58;24.20;99293.33;108452;1267;57867;-73
2023/03/15 12:11:39;;;;;;;7.90;2.00;;;;;;;14.95;24.02;99290.68;108438;1272;59104;-70
2023/03/15 12:14:36;;;;;;;9.30;2.00;;;;;;;14.56;24.68;99292.47;108526;1267;73929;-72
2023/03/15 12:17:27;;;;;;;8.50;1.70;;;;;;;14.35;25.87;99296.50;108484;1267;67351;-73
2023/03/15 12:20:16;;;;;;;8.20;1.80;;;;;;;14.45;25.74;99296.48;108769;1260;71842;-72
2023/03/15 12:23:29;;;;;;;8.40;1.70;;;;;;;14.24;26.66;99300.20;109032;1259;57786;-73
2023/03/15 12:26:25;;;;;;;7.70;1.90;;;;;;;13.40;28.42;99312.19;109004;1260;58919;-71
2023/03/15 12:29:22;;;;;;;8.10;2.20;;;;;;;13.20;29.48;99311.10;109021;1260;72703;-72
2023/03/15 12:32:17;;;;;;;9.60;1.90;;;;;;;12.93;29.11;99316.14;108833;1262;67781;-73
2023/03/15 12:35:16;;;;;;;8.50;1.80;;;;;;;12.50;28.68;99322.66;108885;1262;71206;-71
2023/03/15 12:38:22;;;;;;;8.70;1.90;;;;;;;11.85;28.45;99323.02;108840;1263;57369;-74
2023/03/15 12:41:39;;;;;;;8.40;1.70;;;;;;;11.28;29.30;99328.77;108775;1262;60206;-72
2023/03/15 12:44:39;;;;;;;7.50;1.90;;;;;;;10.57;29.77;99326.86;108848;1263;72860;-72
2023/03/15 12:47:45;;;;;;;8.40;2.10;;;;;;;10.09;30.67;99330.67;108800;1263;67943;-71
2023/03/15 12:50:36;;;;;;;8.90;1.90;;;;;;;9.64;31.56;99334.05;108725;1263;72553;-72
2023/03/15 12:53:52;;;;;;;10.00;2.00;;;;;;;9.41;32.17;99340.73;108670;1264;58116;-70
2023/03/15 12:56:53;;;;;;;9.70;2.00;;;;;;;9.26;33.10;99339.84;108311;1269;59058;-73
2023/03/15 13:00:10;;;;;;;8.70;2.50;;;;;;;9.09;33.41;99338.27;108121;1269;71569;-72
2023/03/15 13:03:17;;;;;;;8.40;1.70;;;;;;;8.87;34.59;99346.04;108202;1269;66530;-74
2023/03/15 13:06:37;;;;;;;8.40;1.70;;;;;;;8.51;36.12;99359.96;108457;1269;73786;-70
2023/03/15 13:09:30;;;;;;;8.60;1.90;;;;;;;8.30;38.27;99377.52;108451;1271;57520;-71
2023/03/15 13:12:46;;;;;;;7.90;1.60;;;;;;;8.14;40.01;99388.60;108454;1269;59060;-72
2023/03/15 13:15:57;;;;;;;9.70;1.90;;;;;;;7.99;40.70;99395.61;107674;1269;1014617;-74
2023/03/15 13:19:04;;;;;;;8.80;2.00;;;;;;;7.75;41.43;99393.07;108386;1269;67750;-75
2023/03/15 13:22:30;;;;;;;7.70;1.50;;;;;;;7.33;42.18;99398.67;107698;1269;1002835;-70
2023/03/15 13:25:42;;;;;;;8.30;1.80;;;;;;;7.04;43.30;99405.79;108434;1268;58281;-73
2023/03/15 13:28:45;;;;;;;7.90;1.70;;;;;;;7.07;43.63;99407.10;108490;1269;60436;-74
2023/03/15 13:31:32;;;;;;;10.30;2.20;;;;;;;7.14;43.04;99411.75;108270;1269;73098;-75
2023/03/15 13:34:23;;;;;;;7.90;1.90;;;;;;;7.09;43.25;99420.08;108814;1260;66928;-75